createdAt,value
2018-09-30T00:03:50.129Z,4.5
2018-09-30T00:08:52.375Z,4.5
2018-09-30T00:13:54.709Z,4.3
2018-09-30T00:18:57.126Z,4.2
2018-09-30T00:23:59.237Z,4.1
2018-09-30T00:29:01.663Z,4.2
2018-09-30T00:34:03.947Z,4.2
2018-09-30T00:39:06.153Z,4.2
2018-09-30T00:44:08.514Z,4.3
2018-09-30T00:49:10.911Z,4.3
2018-09-30T00:54:12.981Z,4.2
2018-09-30T00:59:15.331Z,4.3
2018-09-30T01:04:17.666Z,4.3
2018-09-30T01:09:20.035Z,4.2
2018-09-30T01:14:22.232Z,4.3
2018-09-30T01:19:24.575Z,4.2
2018-09-30T01:24:26.773Z,4.1
2018-09-30T01:29:29.114Z,4.1
2018-09-30T01:34:31.330Z,4.2
2018-09-30T01:39:33.746Z,4.3
2018-09-30T01:44:36.044Z,4.6
2018-09-30T01:49:38.459Z,4.8
2018-09-30T01:54:40.772Z,4.9
2018-09-30T01:59:42.871Z,5
2018-09-30T02:04:45.102Z,4.9
2018-09-30T02:09:47.400Z,4.7
2018-09-30T02:14:49.868Z,4.5
2018-09-30T02:19:51.977Z,4.4
2018-09-30T02:24:54.447Z,4.3
2018-09-30T02:29:56.554Z,4.2
2018-09-30T02:34:58.904Z,4.3
2018-09-30T02:40:01.208Z,4.2
2018-09-30T02:45:03.800Z,4.2
2018-09-30T02:50:05.807Z,4
2018-09-30T02:55:08.028Z,3.9
2018-09-30T03:00:10.458Z,3.9
2018-09-30T03:05:12.779Z,3.9
2018-09-30T03:10:14.910Z,3.8
2018-09-30T03:15:17.253Z,3.7
2018-09-30T03:20:19.602Z,3.4
2018-09-30T03:25:21.871Z,3
2018-09-30T03:30:24.275Z,2.9
2018-09-30T03:35:26.537Z,2.9
2018-09-30T03:40:28.839Z,2.8
2018-09-30T03:45:31.090Z,2.7
2018-09-30T03:50:33.341Z,2.6
2018-09-30T03:55:35.584Z,2.6
2018-09-30T04:00:37.955Z,2.8
2018-09-30T04:05:40.250Z,2.8
2018-09-30T04:10:42.522Z,2.9
2018-09-30T04:15:44.861Z,2.7
2018-09-30T04:20:47.125Z,2.7
2018-09-30T04:25:49.393Z,2.7
2018-09-30T04:30:51.723Z,2.7
2018-09-30T04:35:53.932Z,2.6
2018-09-30T04:40:56.335Z,2.6
2018-09-30T04:45:58.774Z,2.5
2018-09-30T04:51:00.865Z,2.6
2018-09-30T04:56:03.177Z,2.6
2018-09-30T05:01:05.504Z,2.6
2018-09-30T05:06:07.769Z,2.6
2018-09-30T05:11:10.020Z,2.5
2018-09-30T05:16:12.282Z,2.4
2018-09-30T05:21:14.782Z,2.2
2018-09-30T05:26:16.994Z,2.2
2018-09-30T05:31:19.201Z,2.2
2018-09-30T05:36:21.442Z,2.2
2018-09-30T05:46:26.134Z,2.2
2018-09-30T05:51:28.479Z,2.2
2018-09-30T05:56:30.782Z,2.2
2018-09-30T06:01:33.033Z,2.2
2018-09-30T06:06:35.219Z,2.4
2018-09-30T06:11:37.611Z,2.8
2018-09-30T06:16:39.821Z,3.5
2018-09-30T06:21:42.201Z,3.9
2018-09-30T06:26:44.442Z,4.8
2018-09-30T06:31:46.795Z,5.7
2018-09-30T06:36:48.982Z,6.4
2018-09-30T06:41:51.420Z,6.9
2018-09-30T06:46:53.563Z,7.6
2018-09-30T06:51:55.894Z,7.9
2018-09-30T06:56:58.319Z,8.2
2018-09-30T07:02:00.516Z,8.8
2018-09-30T07:07:02.774Z,9.2
2018-09-30T07:12:05.130Z,9
2018-09-30T07:17:07.457Z,8.7
2018-09-30T07:22:09.683Z,8.5
2018-09-30T07:27:11.920Z,8.4
2018-09-30T07:32:14.336Z,8.3
2018-09-30T07:37:16.625Z,8.2
2018-09-30T07:42:18.842Z,8.2
2018-09-30T07:47:21.164Z,8.1
2018-09-30T07:52:23.408Z,8.3
2018-09-30T07:57:25.667Z,8.2
2018-09-30T08:02:28.088Z,8.2
2018-09-30T08:07:30.345Z,8.2
2018-09-30T08:12:32.737Z,8.3
2018-09-30T08:17:34.935Z,8.6
2018-09-30T08:22:37.549Z,8.8
2018-09-30T08:27:39.467Z,8.9
2018-09-30T08:32:41.765Z,9.1
2018-09-30T08:37:44.162Z,9.2
2018-09-30T08:42:46.304Z,9.3
2018-09-30T08:47:48.745Z,9.4
2018-09-30T08:52:50.974Z,9.6
2018-09-30T08:57:53.202Z,10
2018-09-30T09:02:55.673Z,10.2
2018-09-30T09:07:57.925Z,10.4
2018-09-30T09:13:00.112Z,10.7
2018-09-30T09:18:02.388Z,11
2018-09-30T09:23:04.717Z,11.4
2018-09-30T09:28:07.168Z,11.7
2018-09-30T09:33:09.491Z,11.9
2018-09-30T09:38:11.657Z,12.1
2018-09-30T09:43:13.856Z,12.3
2018-09-30T09:48:16.231Z,12.5
2018-09-30T09:53:18.533Z,12.8
2018-09-30T09:58:20.684Z,13
2018-09-30T10:03:23.205Z,13.3
2018-09-30T10:08:25.340Z,13.6
2018-09-30T10:13:27.643Z,13.8
2018-09-30T10:18:30.062Z,14.1
2018-09-30T10:23:32.189Z,14.4
2018-09-30T10:28:34.565Z,14.8
2018-09-30T10:33:36.826Z,15.2
2018-09-30T10:38:39.332Z,15.4
2018-09-30T10:43:41.398Z,15.9
2018-09-30T10:48:43.675Z,16.200001
2018-09-30T10:53:46.071Z,16.4
2018-09-30T10:58:48.383Z,16.299999
2018-09-30T11:03:50.531Z,16.700001
2018-09-30T11:08:52.930Z,16.799999
2018-09-30T11:13:55.116Z,17.200001
2018-09-30T11:18:57.494Z,18.299999
2018-09-30T11:23:59.783Z,18.700001
2018-09-30T11:29:02.194Z,19.1
2018-09-30T11:34:04.408Z,19.299999
2018-09-30T11:39:06.707Z,19.5
2018-09-30T11:44:09.214Z,19.200001
2018-09-30T11:49:11.317Z,18.6
2018-09-30T11:54:13.518Z,18.9
2018-09-30T11:59:15.880Z,20
2018-09-30T12:04:18.085Z,20.5
2018-09-30T12:09:20.427Z,19.6
2018-09-30T12:14:22.740Z,20.1
2018-09-30T12:19:24.939Z,20.1
2018-09-30T12:24:27.297Z,19.5
2018-09-30T12:29:29.590Z,19.1
2018-09-30T12:34:31.836Z,18.700001
2018-09-30T12:39:34.228Z,19.299999
2018-09-30T12:44:36.475Z,20.4
2018-09-30T12:49:38.747Z,20.799999
2018-09-30T12:54:41.122Z,21.5
2018-09-30T12:59:43.287Z,21.200001
2018-09-30T13:04:46.016Z,20.6
2018-09-30T13:09:47.941Z,20.700001
2018-09-30T13:14:50.249Z,20.6
2018-09-30T13:19:52.556Z,20.799999
2018-09-30T13:24:54.999Z,20.799999
2018-09-30T13:29:57.202Z,20.1
2018-09-30T13:34:59.412Z,19.799999
2018-09-30T13:40:01.783Z,19.700001
2018-09-30T13:45:04.134Z,19.700001
2018-09-30T13:50:06.303Z,19.299999
2018-09-30T13:55:08.625Z,19
2018-09-30T14:00:11.061Z,18.700001
2018-09-30T14:05:13.253Z,18.700001
2018-09-30T14:10:15.523Z,19.1
2018-09-30T14:15:17.747Z,19.5
2018-09-30T14:20:20.107Z,19.4
2018-09-30T14:25:22.390Z,19.299999
2018-09-30T14:30:24.815Z,19.200001
2018-09-30T14:35:26.963Z,18.9
2018-09-30T14:40:29.273Z,18.6
2018-09-30T14:45:31.588Z,18.5
2018-09-30T14:50:33.819Z,18.6
2018-09-30T14:55:36.108Z,18.6
2018-09-30T15:00:38.431Z,18.6
2018-09-30T15:05:41.333Z,18.6
2018-09-30T15:10:42.954Z,18.6
2018-09-30T15:15:45.304Z,18.4
2018-09-30T15:20:47.542Z,18
2018-09-30T15:25:49.857Z,17.5
2018-09-30T15:30:52.178Z,17.799999
2018-09-30T15:35:54.500Z,17.5
2018-09-30T15:45:59.112Z,16.6
2018-09-30T15:51:01.317Z,16.1
2018-09-30T15:56:03.793Z,15.9
2018-09-30T16:01:05.959Z,15.9
2018-09-30T16:06:08.292Z,15.8
2018-09-30T16:11:10.492Z,15.8
2018-09-30T16:16:12.884Z,15.7
2018-09-30T16:21:15.135Z,15.4
2018-09-30T16:26:17.363Z,15.1
2018-09-30T16:31:19.811Z,14.8
2018-09-30T16:36:21.983Z,14.6
2018-09-30T16:41:24.491Z,14.4
2018-09-30T16:46:26.712Z,14.3
2018-09-30T16:51:28.973Z,14.2
2018-09-30T16:56:31.234Z,14.1
2018-09-30T17:01:33.422Z,14
2018-09-30T17:06:35.930Z,13.9
2018-09-30T17:11:38.164Z,13.7
2018-09-30T17:16:40.395Z,13.6
2018-09-30T17:21:42.641Z,13.4
2018-09-30T17:26:44.932Z,13.3
2018-09-30T17:31:47.273Z,13.1
2018-09-30T17:36:49.566Z,12.9
2018-09-30T17:41:51.960Z,12.8
2018-09-30T17:46:54.157Z,12.6
2018-09-30T17:51:56.506Z,12.5
2018-09-30T17:56:58.899Z,12.3
2018-09-30T18:02:01.094Z,12.2
2018-09-30T18:07:03.266Z,12
2018-09-30T18:12:05.562Z,11.9
2018-09-30T18:17:07.945Z,11.7
2018-09-30T18:22:10.237Z,11.6
2018-09-30T18:27:12.422Z,11.5
2018-09-30T18:32:14.833Z,11.4
2018-09-30T18:37:17.088Z,11.3
2018-09-30T18:42:19.354Z,11.2
2018-09-30T18:47:21.627Z,11.1
2018-09-30T18:52:24.218Z,11
2018-09-30T18:57:26.260Z,10.9
2018-09-30T19:02:28.524Z,10.8
2018-09-30T19:07:30.786Z,10.6
2018-09-30T19:12:33.321Z,10.5
2018-09-30T19:17:35.397Z,10.4
2018-09-30T19:22:37.766Z,10.3
2018-09-30T19:27:40.191Z,10.1
2018-09-30T19:32:42.320Z,10.1
2018-09-30T19:37:44.721Z,10.1
2018-09-30T19:42:46.913Z,10.1
2018-09-30T19:47:49.312Z,10.2
2018-09-30T19:52:51.606Z,10.2
2018-09-30T19:57:53.703Z,10.2
2018-09-30T20:02:56.125Z,10.2
2018-09-30T20:07:58.693Z,10.3
2018-09-30T20:13:00.638Z,10.4
2018-09-30T20:18:02.942Z,10.6
2018-09-30T20:23:05.399Z,10.7
2018-09-30T20:28:07.616Z,10.7
2018-09-30T20:33:09.849Z,10.8
2018-09-30T20:38:12.130Z,10.8
2018-09-30T20:43:14.521Z,10.8
2018-09-30T20:48:16.759Z,10.9
2018-09-30T20:53:19.026Z,10.9
2018-09-30T20:58:21.506Z,10.9
2018-09-30T21:03:23.572Z,11
2018-09-30T21:08:25.932Z,11
2018-09-30T21:13:28.287Z,11
2018-09-30T21:18:30.570Z,11
2018-09-30T21:23:32.742Z,11
2018-09-30T21:28:35.202Z,11
2018-09-30T21:33:37.482Z,11
2018-09-30T21:38:39.793Z,11
2018-09-30T21:43:41.966Z,11
2018-09-30T21:48:44.417Z,11
2018-09-30T21:53:46.457Z,11
2018-09-30T21:58:48.805Z,10.9
2018-09-30T22:03:51.202Z,11
2018-09-30T22:08:53.498Z,11
2018-09-30T22:13:55.738Z,11
2018-09-30T22:18:58.071Z,11
2018-09-30T22:24:00.370Z,11
2018-09-30T22:29:02.568Z,11
2018-09-30T22:34:04.915Z,10.9
2018-09-30T22:39:07.215Z,10.9
2018-09-30T22:44:09.674Z,10.9
2018-09-30T22:49:11.770Z,10.9
2018-09-30T22:54:14.070Z,10.9
2018-09-30T22:59:16.329Z,10.8
2018-09-30T23:04:18.733Z,10.9
2018-09-30T23:09:21.013Z,10.8
2018-09-30T23:14:23.321Z,10.8
2018-09-30T23:19:25.533Z,10.7
2018-09-30T23:24:27.906Z,10.6
2018-09-30T23:29:30.068Z,10.6
2018-09-30T23:34:33.246Z,10.5
2018-09-30T23:39:34.783Z,10.6
2018-09-30T23:44:36.966Z,10.6
2018-09-30T23:49:39.417Z,10.6
2018-09-30T23:54:41.636Z,10.5
2018-09-30T23:59:43.916Z,10.4
